sensor_id;sensor_type;location;lat;lon;timestamp;P1;durP1;ratioP1;P2;durP2;ratioP2
23044;SDS011;11690;51.716;23.066;2023-08-21T00:01:47;17.80;;;14.15;;
23044;SDS011;11690;51.716;23.066;2023-08-21T00:04:14;19.83;;;14.95;;
23044;SDS011;11690;51.716;23.066;2023-08-21T00:06:42;21.20;;;14.60;;
23044;SDS011;11690;51.716;23.066;2023-08-21T00:09:09;18.58;;;14.57;;
23044;SDS011;11690;51.716;23.066;2023-08-21T00:11:36;20.80;;;13.43;;
23044;SDS011;11690;51.716;23.066;2023-08-21T00:14:03;18.30;;;14.10;;
23044;SDS011;11690;51.716;23.066;2023-08-21T00:16:30;18.20;;;12.75;;
23044;SDS011;11690;51.716;23.066;2023-08-21T00:18:57;20.15;;;14.57;;
23044;SDS011;11690;51.716;23.066;2023-08-21T00:21:25;19.92;;;14.88;;
23044;SDS011;11690;51.716;23.066;2023-08-21T00:23:52;20.05;;;15.65;;
23044;SDS011;11690;51.716;23.066;2023-08-21T00:26:19;22.05;;;16.48;;
23044;SDS011;11690;51.716;23.066;2023-08-21T00:28:46;23.75;;;17.42;;
23044;SDS011;11690;51.716;23.066;2023-08-21T00:31:13;20.10;;;16.02;;
23044;SDS011;11690;51.716;23.066;2023-08-21T00:33:40;23.27;;;15.75;;
23044;SDS011;11690;51.716;23.066;2023-08-21T00:36:08;23.40;;;17.48;;
23044;SDS011;11690;51.716;23.066;2023-08-21T00:38:35;23.50;;;15.95;;
23044;SDS011;11690;51.716;23.066;2023-08-21T00:41:02;21.83;;;15.52;;
23044;SDS011;11690;51.716;23.066;2023-08-21T00:43:31;21.10;;;15.05;;
23044;SDS011;11690;51.716;23.066;2023-08-21T00:45:58;18.73;;;15.15;;
23044;SDS011;11690;51.716;23.066;2023-08-21T00:48:26;20.15;;;15.18;;
23044;SDS011;11690;51.716;23.066;2023-08-21T00:50:53;22.95;;;15.63;;
23044;SDS011;11690;51.716;23.066;2023-08-21T00:53:21;21.85;;;14.85;;
23044;SDS011;11690;51.716;23.066;2023-08-21T00:55:49;20.02;;;14.88;;
23044;SDS011;11690;51.716;23.066;2023-08-21T00:58:16;23.65;;;15.43;;
23044;SDS011;11690;51.716;23.066;2023-08-21T01:00:47;19.88;;;14.77;;
23044;SDS011;11690;51.716;23.066;2023-08-21T01:03:16;18.60;;;13.98;;
23044;SDS011;11690;51.716;23.066;2023-08-21T01:05:44;20.67;;;15.65;;
23044;SDS011;11690;51.716;23.066;2023-08-21T01:08:25;21.55;;;15.80;;
23044;SDS011;11690;51.716;23.066;2023-08-21T01:11:11;19.48;;;14.63;;
23044;SDS011;11690;51.716;23.066;2023-08-21T01:13:44;23.90;;;15.55;;
23044;SDS011;11690;51.716;23.066;2023-08-21T01:16:17;20.83;;;15.90;;
23044;SDS011;11690;51.716;23.066;2023-08-21T01:18:44;19.38;;;14.68;;
23044;SDS011;11690;51.716;23.066;2023-08-21T01:21:12;18.13;;;14.40;;
23044;SDS011;11690;51.716;23.066;2023-08-21T01:23:40;18.92;;;14.50;;
23044;SDS011;11690;51.716;23.066;2023-08-21T01:26:08;19.17;;;14.80;;
23044;SDS011;11690;51.716;23.066;2023-08-21T01:28:36;17.10;;;14.30;;
23044;SDS011;11690;51.716;23.066;2023-08-21T01:33:53;20.88;;;14.88;;
23044;SDS011;11690;51.716;23.066;2023-08-21T01:36:23;24.60;;;14.93;;
23044;SDS011;11690;51.716;23.066;2023-08-21T01:38:52;21.58;;;15.45;;
23044;SDS011;11690;51.716;23.066;2023-08-21T01:41:19;21.25;;;16.55;;
23044;SDS011;11690;51.716;23.066;2023-08-21T01:43:46;22.73;;;17.23;;
23044;SDS011;11690;51.716;23.066;2023-08-21T01:46:14;22.55;;;16.63;;
23044;SDS011;11690;51.716;23.066;2023-08-21T01:48:41;25.00;;;16.58;;
23044;SDS011;11690;51.716;23.066;2023-08-21T01:51:08;22.67;;;16.02;;
23044;SDS011;11690;51.716;23.066;2023-08-21T01:53:35;21.30;;;17.08;;
23044;SDS011;11690;51.716;23.066;2023-08-21T01:56:03;23.30;;;17.27;;
23044;SDS011;11690;51.716;23.066;2023-08-21T01:58:31;25.25;;;18.50;;
23044;SDS011;11690;51.716;23.066;2023-08-21T02:00:59;25.90;;;18.48;;
23044;SDS011;11690;51.716;23.066;2023-08-21T02:03:29;24.27;;;18.45;;
23044;SDS011;11690;51.716;23.066;2023-08-21T02:05:57;26.73;;;18.65;;
23044;SDS011;11690;51.716;23.066;2023-08-21T02:08:26;25.67;;;19.20;;
23044;SDS011;11690;51.716;23.066;2023-08-21T02:10:58;28.92;;;20.15;;
23044;SDS011;11690;51.716;23.066;2023-08-21T02:13:25;25.70;;;17.83;;
23044;SDS011;11690;51.716;23.066;2023-08-21T02:15:53;23.20;;;17.33;;
23044;SDS011;11690;51.716;23.066;2023-08-21T02:18:20;24.17;;;18.83;;
23044;SDS011;11690;51.716;23.066;2023-08-21T02:20:48;26.40;;;19.23;;
23044;SDS011;11690;51.716;23.066;2023-08-21T02:23:16;24.25;;;18.67;;
23044;SDS011;11690;51.716;23.066;2023-08-21T02:25:43;24.10;;;19.17;;
23044;SDS011;11690;51.716;23.066;2023-08-21T02:28:10;24.50;;;18.15;;
23044;SDS011;11690;51.716;23.066;2023-08-21T02:30:41;27.00;;;19.35;;
23044;SDS011;11690;51.716;23.066;2023-08-21T02:33:08;27.63;;;18.27;;
23044;SDS011;11690;51.716;23.066;2023-08-21T02:35:36;27.13;;;18.58;;
23044;SDS011;11690;51.716;23.066;2023-08-21T02:38:03;21.73;;;18.13;;
23044;SDS011;11690;51.716;23.066;2023-08-21T02:40:33;26.08;;;17.52;;
23044;SDS011;11690;51.716;23.066;2023-08-21T02:43:01;23.38;;;18.02;;
23044;SDS011;11690;51.716;23.066;2023-08-21T02:45:28;22.70;;;17.25;;
23044;SDS011;11690;51.716;23.066;2023-08-21T02:47:56;25.45;;;17.80;;
23044;SDS011;11690;51.716;23.066;2023-08-21T02:50:24;22.88;;;17.17;;
23044;SDS011;11690;51.716;23.066;2023-08-21T02:52:51;25.77;;;18.83;;
23044;SDS011;11690;51.716;23.066;2023-08-21T02:55:18;23.38;;;17.88;;
23044;SDS011;11690;51.716;23.066;2023-08-21T02:57:45;28.92;;;18.52;;
23044;SDS011;11690;51.716;23.066;2023-08-21T03:00:12;26.00;;;18.90;;
23044;SDS011;11690;51.716;23.066;2023-08-21T03:02:39;24.00;;;17.92;;
23044;SDS011;11690;51.716;23.066;2023-08-21T03:05:11;25.33;;;18.70;;
23044;SDS011;11690;51.716;23.066;2023-08-21T03:07:40;25.38;;;19.00;;
23044;SDS011;11690;51.716;23.066;2023-08-21T03:10:07;27.25;;;20.05;;
23044;SDS011;11690;51.716;23.066;2023-08-21T03:12:34;25.45;;;19.33;;
23044;SDS011;11690;51.716;23.066;2023-08-21T03:15:03;25.75;;;18.65;;
23044;SDS011;11690;51.716;23.066;2023-08-21T03:17:31;25.27;;;19.83;;
23044;SDS011;11690;51.716;23.066;2023-08-21T03:19:58;24.92;;;18.13;;
23044;SDS011;11690;51.716;23.066;2023-08-21T03:22:26;25.02;;;17.90;;
23044;SDS011;11690;51.716;23.066;2023-08-21T03:24:53;23.90;;;19.00;;
23044;SDS011;11690;51.716;23.066;2023-08-21T03:27:21;26.08;;;18.95;;
23044;SDS011;11690;51.716;23.066;2023-08-21T03:29:48;26.10;;;19.48;;
23044;SDS011;11690;51.716;23.066;2023-08-21T03:32:16;26.05;;;19.45;;
23044;SDS011;11690;51.716;23.066;2023-08-21T03:34:44;24.73;;;19.00;;
23044;SDS011;11690;51.716;23.066;2023-08-21T03:37:11;27.13;;;19.83;;
23044;SDS011;11690;51.716;23.066;2023-08-21T03:39:39;25.98;;;18.10;;
23044;SDS011;11690;51.716;23.066;2023-08-21T03:42:09;28.75;;;19.17;;
23044;SDS011;11690;51.716;23.066;2023-08-21T03:44:37;28.67;;;18.75;;
23044;SDS011;11690;51.716;23.066;2023-08-21T03:47:05;25.80;;;18.42;;
23044;SDS011;11690;51.716;23.066;2023-08-21T03:49:37;28.98;;;20.02;;
23044;SDS011;11690;51.716;23.066;2023-08-21T03:52:04;24.67;;;18.80;;
23044;SDS011;11690;51.716;23.066;2023-08-21T03:54:31;26.13;;;18.67;;
23044;SDS011;11690;51.716;23.066;2023-08-21T03:56:59;29.90;;;19.05;;
23044;SDS011;11690;51.716;23.066;2023-08-21T03:59:26;25.75;;;18.30;;
23044;SDS011;11690;51.716;23.066;2023-08-21T04:01:54;28.13;;;18.52;;
23044;SDS011;11690;51.716;23.066;2023-08-21T04:04:21;28.48;;;18.95;;
23044;SDS011;11690;51.716;23.066;2023-08-21T04:06:48;25.83;;;18.63;;
23044;SDS011;11690;51.716;23.066;2023-08-21T04:09:15;23.58;;;18.08;;
23044;SDS011;11690;51.716;23.066;2023-08-21T04:11:42;26.33;;;19.85;;
23044;SDS011;11690;51.716;23.066;2023-08-21T04:14:09;26.10;;;19.60;;
23044;SDS011;11690;51.716;23.066;2023-08-21T04:16:36;26.20;;;19.23;;
23044;SDS011;11690;51.716;23.066;2023-08-21T04:19:05;27.45;;;20.30;;
23044;SDS011;11690;51.716;23.066;2023-08-21T04:21:32;27.15;;;20.08;;
23044;SDS011;11690;51.716;23.066;2023-08-21T04:23:59;27.35;;;19.95;;
23044;SDS011;11690;51.716;23.066;2023-08-21T04:26:26;25.83;;;19.98;;
23044;SDS011;11690;51.716;23.066;2023-08-21T04:28:54;26.42;;;20.10;;
23044;SDS011;11690;51.716;23.066;2023-08-21T04:31:21;28.77;;;20.35;;
23044;SDS011;11690;51.716;23.066;2023-08-21T04:33:48;27.75;;;20.42;;
23044;SDS011;11690;51.716;23.066;2023-08-21T04:36:16;27.23;;;20.05;;
23044;SDS011;11690;51.716;23.066;2023-08-21T04:38:47;28.50;;;19.83;;
23044;SDS011;11690;51.716;23.066;2023-08-21T04:41:14;27.83;;;20.95;;
23044;SDS011;11690;51.716;23.066;2023-08-21T04:43:44;34.40;;;24.90;;
23044;SDS011;11690;51.716;23.066;2023-08-21T04:46:11;30.23;;;22.35;;
23044;SDS011;11690;51.716;23.066;2023-08-21T04:48:42;31.20;;;21.00;;
23044;SDS011;11690;51.716;23.066;2023-08-21T04:51:09;29.38;;;21.63;;
23044;SDS011;11690;51.716;23.066;2023-08-21T04:53:37;26.92;;;20.50;;
23044;SDS011;11690;51.716;23.066;2023-08-21T04:56:08;30.10;;;20.77;;
23044;SDS011;11690;51.716;23.066;2023-08-21T04:58:36;35.17;;;23.05;;
23044;SDS011;11690;51.716;23.066;2023-08-21T05:01:04;26.15;;;20.25;;
23044;SDS011;11690;51.716;23.066;2023-08-21T05:03:36;29.83;;;21.70;;
23044;SDS011;11690;51.716;23.066;2023-08-21T05:06:04;29.65;;;21.85;;
23044;SDS011;11690;51.716;23.066;2023-08-21T05:08:33;32.38;;;22.13;;
23044;SDS011;11690;51.716;23.066;2023-08-21T05:11:01;31.45;;;21.52;;
23044;SDS011;11690;51.716;23.066;2023-08-21T05:13:32;29.33;;;20.58;;
23044;SDS011;11690;51.716;23.066;2023-08-21T05:15:59;28.85;;;20.45;;
23044;SDS011;11690;51.716;23.066;2023-08-21T05:18:31;28.40;;;21.42;;
23044;SDS011;11690;51.716;23.066;2023-08-21T05:20:58;34.25;;;21.73;;
23044;SDS011;11690;51.716;23.066;2023-08-21T05:23:27;29.17;;;22.20;;
23044;SDS011;11690;51.716;23.066;2023-08-21T05:25:59;29.08;;;21.15;;
23044;SDS011;11690;51.716;23.066;2023-08-21T05:28:26;29.17;;;21.55;;
23044;SDS011;11690;51.716;23.066;2023-08-21T05:30:53;28.55;;;20.02;;
23044;SDS011;11690;51.716;23.066;2023-08-21T05:33:21;32.78;;;21.23;;
23044;SDS011;11690;51.716;23.066;2023-08-21T05:35:49;27.80;;;21.50;;
23044;SDS011;11690;51.716;23.066;2023-08-21T05:38:17;25.77;;;19.95;;
23044;SDS011;11690;51.716;23.066;2023-08-21T05:40:44;26.23;;;20.98;;
23044;SDS011;11690;51.716;23.066;2023-08-21T05:43:11;30.55;;;20.33;;
23044;SDS011;11690;51.716;23.066;2023-08-21T05:45:41;25.77;;;20.38;;
23044;SDS011;11690;51.716;23.066;2023-08-21T05:48:10;30.75;;;20.88;;
23044;SDS011;11690;51.716;23.066;2023-08-21T05:50:37;26.88;;;19.23;;
23044;SDS011;11690;51.716;23.066;2023-08-21T05:53:05;25.05;;;19.88;;
23044;SDS011;11690;51.716;23.066;2023-08-21T05:55:33;26.48;;;19.45;;
23044;SDS011;11690;51.716;23.066;2023-08-21T05:58:00;24.92;;;19.10;;
23044;SDS011;11690;51.716;23.066;2023-08-21T06:00:28;22.95;;;17.13;;
23044;SDS011;11690;51.716;23.066;2023-08-21T06:02:55;22.35;;;16.70;;
23044;SDS011;11690;51.716;23.066;2023-08-21T06:06:00;23.10;;;17.25;;
23044;SDS011;11690;51.716;23.066;2023-08-21T06:08:28;22.75;;;16.08;;
23044;SDS011;11690;51.716;23.066;2023-08-21T06:10:55;22.95;;;15.93;;
23044;SDS011;11690;51.716;23.066;2023-08-21T06:13:22;25.10;;;17.60;;
23044;SDS011;11690;51.716;23.066;2023-08-21T06:15:52;20.38;;;15.05;;
23044;SDS011;11690;51.716;23.066;2023-08-21T06:18:22;17.95;;;14.43;;
23044;SDS011;11690;51.716;23.066;2023-08-21T06:20:49;19.20;;;14.40;;
23044;SDS011;11690;51.716;23.066;2023-08-21T06:23:20;20.20;;;15.70;;
23044;SDS011;11690;51.716;23.066;2023-08-21T06:25:48;19.58;;;14.52;;
23044;SDS011;11690;51.716;23.066;2023-08-21T06:28:17;18.95;;;14.07;;
23044;SDS011;11690;51.716;23.066;2023-08-21T06:30:45;18.50;;;14.38;;
23044;SDS011;11690;51.716;23.066;2023-08-21T06:33:12;19.02;;;13.77;;
23044;SDS011;11690;51.716;23.066;2023-08-21T06:35:40;15.95;;;13.15;;
23044;SDS011;11690;51.716;23.066;2023-08-21T06:38:07;25.45;;;13.32;;
23044;SDS011;11690;51.716;23.066;2023-08-21T06:40:35;20.80;;;13.43;;
23044;SDS011;11690;51.716;23.066;2023-08-21T06:43:02;17.48;;;12.70;;
23044;SDS011;11690;51.716;23.066;2023-08-21T06:45:33;17.88;;;12.43;;
23044;SDS011;11690;51.716;23.066;2023-08-21T06:48:03;21.42;;;12.15;;
23044;SDS011;11690;51.716;23.066;2023-08-21T06:50:30;15.05;;;12.15;;
23044;SDS011;11690;51.716;23.066;2023-08-21T06:52:58;16.52;;;12.90;;
23044;SDS011;11690;51.716;23.066;2023-08-21T06:55:25;23.77;;;14.80;;
23044;SDS011;11690;51.716;23.066;2023-08-21T06:57:52;17.80;;;12.95;;
23044;SDS011;11690;51.716;23.066;2023-08-21T07:00:19;21.25;;;13.75;;
23044;SDS011;11690;51.716;23.066;2023-08-21T07:02:47;13.65;;;11.88;;
23044;SDS011;11690;51.716;23.066;2023-08-21T07:05:14;16.48;;;12.20;;
23044;SDS011;11690;51.716;23.066;2023-08-21T07:07:41;14.73;;;11.25;;
23044;SDS011;11690;51.716;23.066;2023-08-21T07:10:08;14.80;;;10.93;;
23044;SDS011;11690;51.716;23.066;2023-08-21T07:12:36;16.30;;;12.05;;
23044;SDS011;11690;51.716;23.066;2023-08-21T07:15:03;14.23;;;9.98;;
23044;SDS011;11690;51.716;23.066;2023-08-21T07:17:31;11.88;;;9.88;;
23044;SDS011;11690;51.716;23.066;2023-08-21T07:19:58;14.05;;;11.15;;
23044;SDS011;11690;51.716;23.066;2023-08-21T07:22:25;15.20;;;9.45;;
23044;SDS011;11690;51.716;23.066;2023-08-21T07:24:52;11.80;;;9.65;;
23044;SDS011;11690;51.716;23.066;2023-08-21T07:27:20;14.80;;;10.65;;
23044;SDS011;11690;51.716;23.066;2023-08-21T07:29:47;13.15;;;9.77;;
23044;SDS011;11690;51.716;23.066;2023-08-21T07:32:14;13.00;;;10.50;;
23044;SDS011;11690;51.716;23.066;2023-08-21T07:34:41;11.00;;;8.80;;
23044;SDS011;11690;51.716;23.066;2023-08-21T07:37:08;11.25;;;8.77;;
23044;SDS011;11690;51.716;23.066;2023-08-21T07:39:36;13.18;;;8.93;;
23044;SDS011;11690;51.716;23.066;2023-08-21T07:42:03;11.75;;;8.35;;
23044;SDS011;11690;51.716;23.066;2023-08-21T07:44:30;10.55;;;8.40;;
23044;SDS011;11690;51.716;23.066;2023-08-21T07:46:57;14.90;;;8.40;;
23044;SDS011;11690;51.716;23.066;2023-08-21T07:49:24;10.20;;;8.05;;
23044;SDS011;11690;51.716;23.066;2023-08-21T07:51:52;12.05;;;8.13;;
23044;SDS011;11690;51.716;23.066;2023-08-21T07:54:19;11.35;;;8.15;;
23044;SDS011;11690;51.716;23.066;2023-08-21T07:56:46;10.82;;;8.55;;
23044;SDS011;11690;51.716;23.066;2023-08-21T07:59:13;12.40;;;9.13;;
23044;SDS011;11690;51.716;23.066;2023-08-21T08:01:40;13.07;;;9.13;;
23044;SDS011;11690;51.716;23.066;2023-08-21T08:04:08;11.25;;;8.90;;
23044;SDS011;11690;51.716;23.066;2023-08-21T08:06:35;10.98;;;8.55;;
23044;SDS011;11690;51.716;23.066;2023-08-21T08:09:02;10.20;;;7.95;;
23044;SDS011;11690;51.716;23.066;2023-08-21T08:11:30;10.27;;;7.35;;
23044;SDS011;11690;51.716;23.066;2023-08-21T08:13:57;12.65;;;8.02;;
23044;SDS011;11690;51.716;23.066;2023-08-21T08:16:25;9.85;;;8.15;;
23044;SDS011;11690;51.716;23.066;2023-08-21T08:18:52;10.55;;;8.05;;
23044;SDS011;11690;51.716;23.066;2023-08-21T08:21:19;10.52;;;7.88;;
23044;SDS011;11690;51.716;23.066;2023-08-21T08:23:46;11.75;;;7.75;;
23044;SDS011;11690;51.716;23.066;2023-08-21T08:26:14;10.82;;;8.10;;
23044;SDS011;11690;51.716;23.066;2023-08-21T08:28:41;10.68;;;8.32;;
23044;SDS011;11690;51.716;23.066;2023-08-21T08:31:14;10.00;;;7.82;;
23044;SDS011;11690;51.716;23.066;2023-08-21T08:33:44;10.85;;;8.35;;
23044;SDS011;11690;51.716;23.066;2023-08-21T08:36:12;9.73;;;7.75;;
23044;SDS011;11690;51.716;23.066;2023-08-21T08:38:39;11.45;;;8.77;;
23044;SDS011;11690;51.716;23.066;2023-08-21T08:41:07;12.60;;;7.43;;
23044;SDS011;11690;51.716;23.066;2023-08-21T08:43:39;9.88;;;7.68;;
23044;SDS011;11690;51.716;23.066;2023-08-21T08:46:07;11.00;;;8.00;;
23044;SDS011;11690;51.716;23.066;2023-08-21T08:48:36;11.85;;;7.25;;
23044;SDS011;11690;51.716;23.066;2023-08-21T08:51:04;8.93;;;7.47;;
23044;SDS011;11690;51.716;23.066;2023-08-21T08:53:31;9.23;;;7.80;;
23044;SDS011;11690;51.716;23.066;2023-08-21T08:55:59;11.57;;;7.22;;
23044;SDS011;11690;51.716;23.066;2023-08-21T08:58:28;9.25;;;7.18;;
23044;SDS011;11690;51.716;23.066;2023-08-21T09:00:55;8.63;;;7.22;;
23044;SDS011;11690;51.716;23.066;2023-08-21T09:03:22;9.90;;;7.72;;
23044;SDS011;11690;51.716;23.066;2023-08-21T09:05:50;8.90;;;7.10;;
23044;SDS011;11690;51.716;23.066;2023-08-21T09:08:17;11.55;;;6.80;;
23044;SDS011;11690;51.716;23.066;2023-08-21T09:10:44;9.95;;;6.93;;
23044;SDS011;11690;51.716;23.066;2023-08-21T09:15:41;7.35;;;6.45;;
23044;SDS011;11690;51.716;23.066;2023-08-21T09:18:10;12.00;;;6.72;;
23044;SDS011;11690;51.716;23.066;2023-08-21T09:20:37;10.32;;;6.72;;
23044;SDS011;11690;51.716;23.066;2023-08-21T09:23:05;8.32;;;6.53;;
23044;SDS011;11690;51.716;23.066;2023-08-21T09:25:35;8.57;;;6.22;;
23044;SDS011;11690;51.716;23.066;2023-08-21T09:28:06;7.35;;;6.18;;
23044;SDS011;11690;51.716;23.066;2023-08-21T09:30:53;8.32;;;7.10;;
23044;SDS011;11690;51.716;23.066;2023-08-21T09:33:22;8.48;;;6.50;;
23044;SDS011;11690;51.716;23.066;2023-08-21T09:35:53;8.20;;;6.68;;
23044;SDS011;11690;51.716;23.066;2023-08-21T09:38:21;8.60;;;7.32;;
23044;SDS011;11690;51.716;23.066;2023-08-21T09:40:50;9.10;;;6.22;;
23044;SDS011;11690;51.716;23.066;2023-08-21T09:43:18;8.43;;;6.47;;
23044;SDS011;11690;51.716;23.066;2023-08-21T09:45:47;7.97;;;6.95;;
23044;SDS011;11690;51.716;23.066;2023-08-21T09:48:16;9.95;;;6.57;;
23044;SDS011;11690;51.716;23.066;2023-08-21T09:50:43;7.97;;;6.25;;
23044;SDS011;11690;51.716;23.066;2023-08-21T09:53:13;7.70;;;6.32;;
23044;SDS011;11690;51.716;23.066;2023-08-21T09:55:41;12.32;;;6.63;;
23044;SDS011;11690;51.716;23.066;2023-08-21T09:58:08;7.80;;;6.13;;
23044;SDS011;11690;51.716;23.066;2023-08-21T10:00:36;7.97;;;6.35;;
23044;SDS011;11690;51.716;23.066;2023-08-21T10:03:06;6.75;;;5.40;;
23044;SDS011;11690;51.716;23.066;2023-08-21T10:05:36;7.63;;;5.63;;
23044;SDS011;11690;51.716;23.066;2023-08-21T10:08:04;8.85;;;6.43;;
23044;SDS011;11690;51.716;23.066;2023-08-21T10:10:37;8.18;;;6.40;;
23044;SDS011;11690;51.716;23.066;2023-08-21T10:13:05;9.18;;;7.00;;
23044;SDS011;11690;51.716;23.066;2023-08-21T10:15:33;8.30;;;6.00;;
23044;SDS011;11690;51.716;23.066;2023-08-21T10:20:51;10.40;;;7.03;;
23044;SDS011;11690;51.716;23.066;2023-08-21T10:23:28;10.40;;;7.03;;
23044;SDS011;11690;51.716;23.066;2023-08-21T10:26:00;10.63;;;7.15;;
23044;SDS011;11690;51.716;23.066;2023-08-21T10:31:30;8.93;;;7.22;;
23044;SDS011;11690;51.716;23.066;2023-08-21T10:34:02;9.27;;;8.18;;
23044;SDS011;11690;51.716;23.066;2023-08-21T10:39:18;15.07;;;8.27;;
23044;SDS011;11690;51.716;23.066;2023-08-21T10:42:00;13.73;;;9.20;;
23044;SDS011;11690;51.716;23.066;2023-08-21T10:44:33;15.77;;;8.90;;
23044;SDS011;11690;51.716;23.066;2023-08-21T10:49:57;12.80;;;8.45;;
23044;SDS011;11690;51.716;23.066;2023-08-21T10:52:34;8.70;;;7.10;;
23044;SDS011;11690;51.716;23.066;2023-08-21T10:55:04;11.45;;;8.45;;
23044;SDS011;11690;51.716;23.066;2023-08-21T10:57:32;10.82;;;8.60;;
23044;SDS011;11690;51.716;23.066;2023-08-21T11:02:31;14.90;;;8.45;;
23044;SDS011;11690;51.716;23.066;2023-08-21T11:04:59;11.77;;;8.88;;
23044;SDS011;11690;51.716;23.066;2023-08-21T11:07:27;10.48;;;8.48;;
23044;SDS011;11690;51.716;23.066;2023-08-21T11:09:55;11.07;;;7.82;;
23044;SDS011;11690;51.716;23.066;2023-08-21T11:12:23;12.88;;;8.45;;
23044;SDS011;11690;51.716;23.066;2023-08-21T11:14:51;12.25;;;8.07;;
23044;SDS011;11690;51.716;23.066;2023-08-21T11:17:18;11.90;;;7.72;;
23044;SDS011;11690;51.716;23.066;2023-08-21T11:19:45;10.38;;;7.57;;
23044;SDS011;11690;51.716;23.066;2023-08-21T11:22:15;12.27;;;8.38;;
23044;SDS011;11690;51.716;23.066;2023-08-21T11:27:12;12.65;;;8.38;;
23044;SDS011;11690;51.716;23.066;2023-08-21T11:29:44;12.63;;;7.50;;
23044;SDS011;11690;51.716;23.066;2023-08-21T11:32:16;11.20;;;8.27;;
23044;SDS011;11690;51.716;23.066;2023-08-21T11:34:48;9.07;;;7.10;;
23044;SDS011;11690;51.716;23.066;2023-08-21T11:37:19;9.73;;;7.35;;
23044;SDS011;11690;51.716;23.066;2023-08-21T11:39:51;8.70;;;6.70;;
23044;SDS011;11690;51.716;23.066;2023-08-21T11:42:28;9.55;;;6.97;;
23044;SDS011;11690;51.716;23.066;2023-08-21T11:44:56;7.88;;;5.90;;
23044;SDS011;11690;51.716;23.066;2023-08-21T11:47:23;6.88;;;5.70;;
23044;SDS011;11690;51.716;23.066;2023-08-21T11:50:01;7.20;;;5.72;;
23044;SDS011;11690;51.716;23.066;2023-08-21T11:52:30;9.20;;;5.65;;
23044;SDS011;11690;51.716;23.066;2023-08-21T11:54:58;7.78;;;5.82;;
23044;SDS011;11690;51.716;23.066;2023-08-21T11:57:25;7.00;;;5.55;;
23044;SDS011;11690;51.716;23.066;2023-08-21T11:59:53;8.38;;;5.88;;
23044;SDS011;11690;51.716;23.066;2023-08-21T12:05:21;9.93;;;5.35;;
23044;SDS011;11690;51.716;23.066;2023-08-21T12:07:41;7.72;;;5.35;;
23044;SDS011;11690;51.716;23.066;2023-08-21T12:10:09;7.13;;;5.85;;
23044;SDS011;11690;51.716;23.066;2023-08-21T12:12:36;7.63;;;5.28;;
23044;SDS011;11690;51.716;23.066;2023-08-21T12:15:03;6.57;;;5.13;;
23044;SDS011;11690;51.716;23.066;2023-08-21T12:17:31;7.18;;;5.57;;
23044;SDS011;11690;51.716;23.066;2023-08-21T12:19:58;8.20;;;5.82;;
23044;SDS011;11690;51.716;23.066;2023-08-21T12:22:28;10.00;;;5.18;;
23044;SDS011;11690;51.716;23.066;2023-08-21T12:24:55;5.70;;;4.95;;
23044;SDS011;11690;51.716;23.066;2023-08-21T12:27:22;6.18;;;4.68;;
23044;SDS011;11690;51.716;23.066;2023-08-21T12:29:49;7.20;;;5.13;;
23044;SDS011;11690;51.716;23.066;2023-08-21T12:32:16;11.27;;;5.22;;
23044;SDS011;11690;51.716;23.066;2023-08-21T12:34:43;8.95;;;5.05;;
23044;SDS011;11690;51.716;23.066;2023-08-21T12:37:11;6.13;;;4.82;;
23044;SDS011;11690;51.716;23.066;2023-08-21T12:39:38;6.82;;;5.07;;
23044;SDS011;11690;51.716;23.066;2023-08-21T12:42:05;6.32;;;5.00;;
23044;SDS011;11690;51.716;23.066;2023-08-21T12:44:34;6.20;;;4.50;;
23044;SDS011;11690;51.716;23.066;2023-08-21T12:47:01;6.78;;;4.97;;
23044;SDS011;11690;51.716;23.066;2023-08-21T12:49:29;6.30;;;4.72;;
23044;SDS011;11690;51.716;23.066;2023-08-21T12:51:56;6.88;;;4.65;;
23044;SDS011;11690;51.716;23.066;2023-08-21T12:54:23;7.18;;;5.13;;
23044;SDS011;11690;51.716;23.066;2023-08-21T12:56:50;8.60;;;5.07;;
23044;SDS011;11690;51.716;23.066;2023-08-21T12:59:18;6.90;;;5.32;;
23044;SDS011;11690;51.716;23.066;2023-08-21T13:01:46;6.85;;;5.43;;
23044;SDS011;11690;51.716;23.066;2023-08-21T13:04:13;7.55;;;5.88;;
23044;SDS011;11690;51.716;23.066;2023-08-21T13:06:40;9.35;;;6.03;;
23044;SDS011;11690;51.716;23.066;2023-08-21T13:09:07;8.77;;;6.30;;
23044;SDS011;11690;51.716;23.066;2023-08-21T13:11:35;11.82;;;6.18;;
23044;SDS011;11690;51.716;23.066;2023-08-21T13:14:02;9.00;;;6.30;;
23044;SDS011;11690;51.716;23.066;2023-08-21T13:16:29;9.25;;;6.13;;
23044;SDS011;11690;51.716;23.066;2023-08-21T13:18:56;7.82;;;6.28;;
23044;SDS011;11690;51.716;23.066;2023-08-21T13:21:23;7.95;;;6.72;;
23044;SDS011;11690;51.716;23.066;2023-08-21T13:23:50;7.32;;;6.15;;
23044;SDS011;11690;51.716;23.066;2023-08-21T13:26:18;11.02;;;6.93;;
23044;SDS011;11690;51.716;23.066;2023-08-21T13:28:45;12.02;;;6.75;;
23044;SDS011;11690;51.716;23.066;2023-08-21T13:31:12;9.10;;;5.97;;
23044;SDS011;11690;51.716;23.066;2023-08-21T13:33:48;7.30;;;5.90;;
23044;SDS011;11690;51.716;23.066;2023-08-21T13:36:18;10.63;;;5.75;;
23044;SDS011;11690;51.716;23.066;2023-08-21T13:38:45;4.88;;;4.38;;
23044;SDS011;11690;51.716;23.066;2023-08-21T13:41:13;4.75;;;4.25;;
23044;SDS011;11690;51.716;23.066;2023-08-21T13:43:40;5.78;;;3.58;;
23044;SDS011;11690;51.716;23.066;2023-08-21T13:46:07;4.35;;;3.20;;
23044;SDS011;11690;51.716;23.066;2023-08-21T13:48:34;5.70;;;3.55;;
23044;SDS011;11690;51.716;23.066;2023-08-21T13:51:02;4.90;;;3.20;;
23044;SDS011;11690;51.716;23.066;2023-08-21T13:53:29;3.83;;;3.28;;
23044;SDS011;11690;51.716;23.066;2023-08-21T13:55:56;3.20;;;2.78;;
23044;SDS011;11690;51.716;23.066;2023-08-21T13:58:23;4.45;;;3.10;;
23044;SDS011;11690;51.716;23.066;2023-08-21T14:00:50;2.45;;;2.17;;
23044;SDS011;11690;51.716;23.066;2023-08-21T14:03:17;4.03;;;2.47;;
23044;SDS011;11690;51.716;23.066;2023-08-21T14:05:45;5.57;;;3.20;;
23044;SDS011;11690;51.716;23.066;2023-08-21T14:08:12;5.32;;;2.70;;
23044;SDS011;11690;51.716;23.066;2023-08-21T14:10:39;3.28;;;2.75;;
23044;SDS011;11690;51.716;23.066;2023-08-21T14:13:06;2.90;;;2.40;;
23044;SDS011;11690;51.716;23.066;2023-08-21T14:15:35;4.30;;;2.70;;
23044;SDS011;11690;51.716;23.066;2023-08-21T14:18:02;5.45;;;3.00;;
23044;SDS011;11690;51.716;23.066;2023-08-21T14:20:30;6.15;;;2.72;;
23044;SDS011;11690;51.716;23.066;2023-08-21T14:22:57;4.13;;;3.55;;
23044;SDS011;11690;51.716;23.066;2023-08-21T14:25:24;4.18;;;3.17;;
23044;SDS011;11690;51.716;23.066;2023-08-21T14:27:51;4.45;;;3.47;;
23044;SDS011;11690;51.716;23.066;2023-08-21T14:30:19;5.38;;;3.28;;
23044;SDS011;11690;51.716;23.066;2023-08-21T14:32:47;7.82;;;4.13;;
23044;SDS011;11690;51.716;23.066;2023-08-21T14:35:14;7.00;;;3.92;;
23044;SDS011;11690;51.716;23.066;2023-08-21T14:37:41;7.40;;;3.85;;
23044;SDS011;11690;51.716;23.066;2023-08-21T14:40:08;5.63;;;3.90;;
23044;SDS011;11690;51.716;23.066;2023-08-21T14:42:37;5.25;;;4.57;;
23044;SDS011;11690;51.716;23.066;2023-08-21T14:45:06;5.50;;;4.07;;
23044;SDS011;11690;51.716;23.066;2023-08-21T14:47:33;11.20;;;5.07;;
23044;SDS011;11690;51.716;23.066;2023-08-21T14:50:00;7.15;;;5.13;;